createdAt,value
2023-01-09T00:00:00.000Z,16.41
2023-01-09T00:15:00.000Z,16.87
2023-01-09T00:30:00.000Z,16.95
2023-01-09T00:45:00.000Z,16.49
2023-01-09T01:00:00.000Z,17.27
2023-01-09T01:15:00.000Z,15.68
2023-01-09T01:30:00.000Z,16.04
2023-01-09T01:45:00.000Z,15.4
2023-01-09T02:00:00.000Z,15.87
2023-01-09T02:15:00.000Z,15.27
2023-01-09T02:30:00.000Z,16.45
2023-01-09T02:45:00.000Z,16.39
2023-01-09T03:00:00.000Z,16.86
2023-01-09T03:15:00.000Z,17.53
2023-01-09T03:30:00.000Z,21.89
2023-01-09T03:45:00.000Z,27.32
2023-01-09T04:00:00.000Z,18.39
2023-01-09T04:15:00.000Z,17.85
2023-01-09T04:30:00.000Z,17.34
2023-01-09T04:45:00.000Z,19.86
2023-01-09T05:00:00.000Z,19.47
2023-01-09T05:15:00.000Z,23.22
2023-01-09T05:30:00.000Z,19.46
2023-01-09T05:45:00.000Z,19.71
2023-01-09T06:00:00.000Z,19.51
2023-01-09T06:15:00.000Z,20.8
2023-01-09T06:30:00.000Z,16.36
2023-01-09T06:45:00.000Z,4.53
2023-01-09T07:00:00.000Z,1.4
2023-01-09T07:15:00.000Z,1.22
2023-01-09T07:30:00.000Z,1.35
2023-01-09T07:45:00.000Z,1.41
2023-01-09T08:00:00.000Z,4.44
2023-01-09T08:15:00.000Z,6.45
2023-01-09T08:30:00.000Z,5.6
2023-01-09T08:45:00.000Z,4.19
2023-01-09T09:00:00.000Z,1.52
2023-01-09T09:15:00.000Z,1.88
2023-01-09T09:30:00.000Z,1.9
2023-01-09T09:45:00.000Z,1.89
2023-01-09T10:00:00.000Z,1.4
2023-01-09T10:15:00.000Z,1.39
2023-01-09T10:30:00.000Z,1.41
2023-01-09T10:45:00.000Z,1.58
2023-01-09T11:00:00.000Z,1.4
2023-01-09T11:15:00.000Z,1.56
2023-01-09T11:30:00.000Z,1.82
2023-01-09T11:45:00.000Z,2.81
2023-01-09T12:00:00.000Z,2.53
2023-01-09T12:15:00.000Z,2.87
2023-01-09T12:30:00.000Z,1.39
2023-01-09T12:45:00.000Z,1.89
2023-01-09T13:00:00.000Z,1.54
2023-01-09T13:15:00.000Z,1.59
2023-01-09T13:30:00.000Z,2.27
2023-01-09T13:45:00.000Z,3.29
2023-01-09T14:00:00.000Z,4.04
2023-01-09T14:15:00.000Z,4.48
2023-01-09T14:30:00.000Z,6.56
2023-01-09T14:45:00.000Z,7.28
2023-01-09T15:00:00.000Z,7.48
2023-01-09T15:15:00.000Z,10.59
2023-01-09T15:30:00.000Z,8.26
2023-01-09T15:45:00.000Z,7.67
2023-01-09T16:00:00.000Z,7.42
2023-01-09T16:15:00.000Z,7.85
2023-01-09T16:30:00.000Z,7.95
2023-01-09T16:45:00.000Z,5.34
2023-01-09T17:00:00.000Z,5.47
2023-01-09T17:15:00.000Z,5.22
2023-01-09T17:30:00.000Z,7.11
2023-01-09T17:45:00.000Z,10.36
2023-01-09T18:00:00.000Z,3.35
2023-01-09T18:15:00.000Z,3.6
2023-01-09T18:30:00.000Z,1.79
2023-01-09T18:45:00.000Z,1.56
2023-01-09T19:00:00.000Z,2.81
2023-01-09T19:15:00.000Z,2.42
2023-01-09T19:30:00.000Z,3.49
2023-01-09T19:45:00.000Z,2.38
2023-01-09T20:00:00.000Z,8.14
2023-01-09T20:15:00.000Z,23.91
2023-01-09T20:30:00.000Z,14.38
2023-01-09T20:45:00.000Z,3.36
2023-01-09T21:00:00.000Z,3.08
2023-01-09T21:15:00.000Z,2.04
2023-01-09T21:30:00.000Z,2.13
2023-01-09T21:45:00.000Z,1.96
2023-01-09T22:00:00.000Z,1.48
2023-01-09T22:15:00.000Z,1.6
2023-01-09T22:30:00.000Z,1.4
2023-01-09T22:45:00.000Z,1.19
2023-01-09T23:00:00.000Z,1.24
2023-01-09T23:15:00.000Z,1.21
2023-01-09T23:30:00.000Z,1.28
2023-01-09T23:45:00.000Z,1.25
